Bob Hope Airport
KBUR : now visible

Airfield :











YOU CAN JOIN US ON...

 
LOGIN :

Register | Disclaimer

   EN    FR    IT 

 









Legend :    VFR   Marginal VFR   IFR   Intensive IFR   Very Intensive IFR
Visi :
Ceiling :
>= 8 km
>= 3000ft
5 to 8 km
1000 to 3000 ft
1500m to 5 km
500 to 1000 ft
800 to 1500m
200 to 500 ft
< 800m
< 200 ft
Symbols :   Thunderstorms  Fog  Heavy snow  Heavy precipitations  Wind > 20 kt







- Airport Elevation : 778 ft
- IATA code : BUR


KBUR - Bob Hope

CURRENT METAR :
  • 222353Z 18010KT 10SM CLR 27/17 A2974 RMK AO2 SLP059 T02720167 10294 20256 55009 $

EXPIRED METARs :
  • 222253Z 16010KT 10SM CLR 28/17 A2974 RMK AO2 SLP056 T02830167 $
  • 222153Z 18010KT 10SM CLR 29/16 A2975 RMK AO2 SLP060 T02890161 $
  • 222053Z 18011KT 10SM CLR 29/16 A2977 RMK AO2 SLP067 T02890161 58014 $

TAF KBUR
Valid from the 23 at 00:00 until the 24 at 00:00 UTC


222340Z 2300/2324 16010KT P6SM SKC
FM230400 12006KT P6SM SKC
FM230800 12008KT 5SM BR OVC006
FM231400 14008KT P6SM OVC010
FM231800 15004KT P6SM SCT015
FM232000 17008KT P6SM SKC
No reported NOTAMs for that airfield.



MET'MAP, your aeronautical weather chart ! - Copyright ORBIFLY December 2007 - Disclaimer

ORBIFLY MET'MAP TEAM :

Programming & Development : Alexandra Zaïnal
Concept & Development : Baudouin d'Aumeries
Co-Development & Prog : Marc-Olivier Méhu
Technical & hardware support : Manuel Goepfert

Contact : metmap@orbifly.com




SOURCES & CREDITS :

   NOAA       Earth
Advisory